首页
METAR-TAF:

METAR-TAF

机场 :

帕尔杜比采, 捷克共和国

纬度: 50-00-48N, 经度: 15-44-19E, 海拔: 226米

当前天气观测

该预报发布于17分钟前的04:00 UTC
风速14节,风向西南
温度 6°C
湿度 81%
气压 1013 hPa
能见度10公里或以上
阴天层高于2500英尺
小雨

METAR: LKPD 210400Z 23014KT 9999 -RA OVC025 06/03 Q1013 NOSIG

时间: 05:17 (04:17 UTC)

预报

该预报发布于5小时和17分钟前的23:00 UTC
预报有效从21日的 00点(UTC)到 22日的 00点(UTC)
风速12节,风向南转西南,有时为26节阵风
能见度10公里或以上
多云层高于3500英尺
短暂存在
从 21日的 03点(UTC)到 21日的 15点(UTC)
能見度: 6000
散云层高于2000英尺, 塔状积云.
多云层高于3000英尺
阵雨
几率 30% :
短暂存在
从 21日的 03点(UTC)到 21日的 08点(UTC)
风速18节,风向西转西南,有时为40节阵风
能見度: 4000
多云层高于1000英尺
阴天层高于2000英尺
雨, 雪
成为
从 21日的 04点(UTC)到 21日的 06点(UTC)
风速14节,风向西转西北
短暂存在
从 21日的 06点(UTC)到 21日的 15点(UTC)
风速20节,风向西转西北,有时为30节阵风
成为
从 21日的 15点(UTC)到 21日的 17点(UTC)
风速8节,风向西转西北
成为
从 21日的 19点(UTC)到 21日的 21点(UTC)
风速8节,风向西转西南
能见度10公里或以上
1500米以下无云,无积雨云

TAF: LKPD 202300Z 2100/2200 21012G26KT 9999 BKN035 TEMPO 2103/2115 6000 SHRA SCT020TCU BKN030 PROB30 TEMPO 2103/2108 25018G40KT 4000 RASN BKN010 OVC020 BECMG 2104/2106 29014KT TEMPO 2106/2115 29020G30KT BECMG 2115/2117 29008KT BECMG 2119/2121 24008KT CAVOK

超过4000个机场的气象观测和天气预报(METAR&TAF报告)。

可查询的气象台以黄色和红色小点在地图上表示。

将鼠标移到小点上方,可查看气象台名称。

然后点击查看天气观测和预报。

如需切换地图:点击带黑十字的绿色按钮放大地图;点击带横线的绿色按钮缩小地图;或者点击绿色箭头查看邻近地区的地图。


METAR-TAF: